createdAt,value
2023-05-16T00:01:10.017Z,28.90
2023-05-16T00:03:39.138Z,28.50
2023-05-16T00:06:05.787Z,28.05
2023-05-16T00:08:32.148Z,28.30
2023-05-16T00:10:58.460Z,26.80
2023-05-16T00:13:25.770Z,27.48
2023-05-16T00:15:53.499Z,27.30
2023-05-16T00:18:19.979Z,27.63
2023-05-16T00:20:46.288Z,26.42
2023-05-16T00:23:12.873Z,27.85
2023-05-16T00:25:39.242Z,25.73
2023-05-16T00:28:05.802Z,25.13
2023-05-16T00:30:32.397Z,24.38
2023-05-16T00:32:58.757Z,23.08
2023-05-16T00:35:25.261Z,24.85
2023-05-16T00:37:51.634Z,24.40
2023-05-16T00:40:18.163Z,26.23
2023-05-16T00:42:44.635Z,24.02
2023-05-16T00:45:11.379Z,22.85
2023-05-16T00:47:37.742Z,23.23
2023-05-16T00:50:04.539Z,24.48
2023-05-16T00:52:33.468Z,23.27
2023-05-16T00:55:00.169Z,25.05
2023-05-16T00:57:27.525Z,24.40
2023-05-16T00:59:54.503Z,24.83
2023-05-16T01:02:20.972Z,23.00
2023-05-16T01:04:48.267Z,23.33
2023-05-16T01:07:14.872Z,23.52
2023-05-16T01:09:41.684Z,23.88
2023-05-16T01:12:29.471Z,25.27
2023-05-16T01:15:35.355Z,23.75
2023-05-16T01:18:17.235Z,25.52
2023-05-16T01:20:52.005Z,23.10
2023-05-16T01:23:43.464Z,23.65
2023-05-16T01:26:15.484Z,23.25
2023-05-16T01:28:43.958Z,24.92
2023-05-16T01:31:11.073Z,23.92
2023-05-16T01:33:37.426Z,23.92
2023-05-16T01:36:11.642Z,24.83
2023-05-16T01:38:59.627Z,23.77
2023-05-16T01:42:01.170Z,24.55
2023-05-16T01:44:56.639Z,23.40
2023-05-16T01:47:26.805Z,22.70
2023-05-16T01:50:11.945Z,23.80
2023-05-16T01:52:45.975Z,24.02
2023-05-16T01:55:18.867Z,23.55
2023-05-16T01:57:46.007Z,23.35
2023-05-16T02:00:13.115Z,24.90
2023-05-16T02:02:42.446Z,23.73
2023-05-16T02:05:08.858Z,23.25
2023-05-16T02:07:36.142Z,24.15
2023-05-16T02:10:02.583Z,24.02
2023-05-16T02:12:28.921Z,23.13
2023-05-16T02:14:55.365Z,22.80
2023-05-16T02:17:21.899Z,22.13
2023-05-16T02:19:48.255Z,22.38
2023-05-16T02:22:14.565Z,21.42
2023-05-16T02:24:41.000Z,20.55
2023-05-16T02:27:07.331Z,19.63
2023-05-16T02:29:33.647Z,18.30
2023-05-16T02:32:00.116Z,18.10
2023-05-16T02:34:26.514Z,16.02
2023-05-16T02:36:52.831Z,15.95
2023-05-16T02:39:19.161Z,15.20
2023-05-16T02:41:45.499Z,14.10
2023-05-16T02:44:11.820Z,12.52
2023-05-16T02:46:38.205Z,12.68
2023-05-16T02:49:04.700Z,12.52
2023-05-16T02:51:31.316Z,10.60
2023-05-16T02:53:59.529Z,11.13
2023-05-16T02:56:26.183Z,9.90
2023-05-16T02:58:54.348Z,7.00
2023-05-16T03:01:20.912Z,5.57
2023-05-16T03:03:47.462Z,9.68
2023-05-16T03:06:13.934Z,9.60
2023-05-16T03:08:40.258Z,8.38
2023-05-16T03:11:06.569Z,7.57
2023-05-16T03:13:33.060Z,4.95
2023-05-16T03:15:59.722Z,3.92
2023-05-16T03:18:26.185Z,3.58
2023-05-16T03:20:52.940Z,3.65
2023-05-16T03:23:20.621Z,3.47
2023-05-16T03:25:47.717Z,3.55
2023-05-16T03:28:15.347Z,3.25
2023-05-16T03:30:42.146Z,3.55
2023-05-16T03:33:08.533Z,3.35
2023-05-16T03:35:36.345Z,3.20
2023-05-16T03:38:03.455Z,2.92
2023-05-16T03:40:29.850Z,3.60
2023-05-16T03:42:56.179Z,2.80
2023-05-16T03:45:22.525Z,2.90
2023-05-16T03:47:49.523Z,2.65
2023-05-16T03:50:16.309Z,2.75
2023-05-16T03:52:42.652Z,2.70
2023-05-16T03:55:09.339Z,2.38
2023-05-16T03:57:38.290Z,2.40
2023-05-16T04:00:07.992Z,2.40
2023-05-16T04:02:41.215Z,2.55
2023-05-16T04:05:09.187Z,2.08
2023-05-16T04:07:36.240Z,2.30
2023-05-16T04:10:03.386Z,2.55
2023-05-16T04:12:29.765Z,2.40
2023-05-16T04:14:56.267Z,2.40
2023-05-16T04:17:22.850Z,2.47
2023-05-16T04:19:49.259Z,2.28
2023-05-16T04:22:15.859Z,2.10
2023-05-16T04:24:42.211Z,2.20
2023-05-16T04:27:12.105Z,2.50
2023-05-16T04:29:38.492Z,2.30
2023-05-16T04:32:07.459Z,2.40
2023-05-16T04:34:39.830Z,2.35
2023-05-16T04:37:08.099Z,2.25
2023-05-16T04:39:35.659Z,2.42
2023-05-16T04:42:03.199Z,2.50
2023-05-16T04:44:29.880Z,1.90
2023-05-16T04:46:56.779Z,1.98
2023-05-16T04:49:23.316Z,2.05
2023-05-16T04:51:49.678Z,1.83
2023-05-16T04:54:16.030Z,2.28
2023-05-16T04:56:42.397Z,1.90
2023-05-16T04:59:08.732Z,1.90
2023-05-16T05:01:35.508Z,1.65
2023-05-16T05:04:01.902Z,2.08
2023-05-16T05:06:28.217Z,1.83
2023-05-16T05:08:54.811Z,1.95
2023-05-16T05:11:21.368Z,2.15
2023-05-16T05:13:47.667Z,1.98
2023-05-16T05:16:13.987Z,1.92
2023-05-16T05:18:40.403Z,2.22
2023-05-16T05:21:06.832Z,2.28
2023-05-16T05:23:34.724Z,2.13
2023-05-16T05:26:02.069Z,2.15
2023-05-16T05:28:28.468Z,2.25
2023-05-16T05:30:54.867Z,2.47
2023-05-16T05:33:27.015Z,2.35
2023-05-16T05:35:54.080Z,2.30
2023-05-16T05:38:20.400Z,2.38
2023-05-16T05:40:46.695Z,2.60
2023-05-16T05:43:13.155Z,1.70
2023-05-16T05:45:39.589Z,2.15
2023-05-16T05:48:06.505Z,1.98
2023-05-16T05:50:33.398Z,2.88
2023-05-16T05:52:59.904Z,6.82
2023-05-16T05:55:26.686Z,4.85
2023-05-16T05:57:53.240Z,3.63
2023-05-16T06:00:19.770Z,2.35
2023-05-16T06:02:47.286Z,1.90
2023-05-16T06:05:13.835Z,2.50
2023-05-16T06:07:40.234Z,2.45
2023-05-16T06:10:08.422Z,2.60
2023-05-16T06:12:34.750Z,2.72
2023-05-16T06:15:01.110Z,2.03
2023-05-16T06:17:27.438Z,2.10
2023-05-16T06:19:53.840Z,1.67
2023-05-16T06:22:20.122Z,1.90
2023-05-16T06:24:46.424Z,1.92
2023-05-16T06:27:12.728Z,2.03
2023-05-16T06:29:39.180Z,2.33
2023-05-16T06:32:06.011Z,1.65
2023-05-16T06:34:32.395Z,1.38
2023-05-16T06:36:59.602Z,1.55
2023-05-16T06:39:26.030Z,2.10
2023-05-16T06:41:55.627Z,1.52
2023-05-16T06:44:23.696Z,1.38
2023-05-16T06:46:50.118Z,1.00
2023-05-16T06:49:16.566Z,0.55
2023-05-16T06:51:42.985Z,0.80
2023-05-16T06:54:09.335Z,0.60
2023-05-16T06:56:35.987Z,0.90
2023-05-16T06:59:02.448Z,1.00
2023-05-16T07:01:28.962Z,0.77
2023-05-16T07:03:55.429Z,0.68
2023-05-16T07:06:21.932Z,0.60
2023-05-16T07:08:48.304Z,0.90
2023-05-16T07:11:14.943Z,0.70
2023-05-16T07:13:41.277Z,0.52
2023-05-16T07:16:08.408Z,0.47
2023-05-16T07:18:34.946Z,0.52
2023-05-16T07:21:01.324Z,0.60
2023-05-16T07:23:27.786Z,0.68
2023-05-16T07:25:54.213Z,0.60
2023-05-16T07:28:21.971Z,0.90
2023-05-16T07:30:48.622Z,1.00
2023-05-16T07:33:15.024Z,1.52
2023-05-16T07:35:41.609Z,1.48
2023-05-16T07:38:08.018Z,1.73
2023-05-16T07:40:34.403Z,1.40
2023-05-16T07:43:02.662Z,1.80
2023-05-16T07:45:29.427Z,1.80
2023-05-16T07:47:56.175Z,2.00
2023-05-16T07:50:22.611Z,1.42
2023-05-16T07:52:48.967Z,1.40
2023-05-16T07:55:15.359Z,1.30
2023-05-16T07:57:43.518Z,1.75
2023-05-16T08:00:11.548Z,1.65
2023-05-16T08:02:41.048Z,2.17
2023-05-16T08:05:08.230Z,2.67
2023-05-16T08:07:36.468Z,3.38
2023-05-16T08:10:03.463Z,2.50
2023-05-16T08:12:30.923Z,2.35
2023-05-16T08:14:57.292Z,3.25
2023-05-16T08:17:23.762Z,3.08
2023-05-16T08:19:50.167Z,2.75
2023-05-16T08:22:16.663Z,2.72
2023-05-16T08:24:43.057Z,3.15
2023-05-16T08:27:09.448Z,3.75
2023-05-16T08:29:35.814Z,3.78
2023-05-16T08:32:02.216Z,3.03
2023-05-16T08:34:31.722Z,3.38
2023-05-16T08:36:58.080Z,2.72
2023-05-16T08:39:24.484Z,2.85
2023-05-16T08:41:50.888Z,3.67
2023-05-16T08:44:21.587Z,2.78
2023-05-16T08:46:53.270Z,3.08
2023-05-16T08:49:20.223Z,2.88
2023-05-16T08:51:47.893Z,3.28
2023-05-16T08:54:15.746Z,3.13
2023-05-16T08:56:43.148Z,2.75
2023-05-16T08:59:09.980Z,2.80
2023-05-16T09:01:36.895Z,2.85
2023-05-16T09:04:06.872Z,2.38
2023-05-16T09:06:33.348Z,2.30
2023-05-16T09:08:59.725Z,2.50
2023-05-16T09:11:26.221Z,2.72
2023-05-16T09:13:52.545Z,3.65
2023-05-16T09:16:20.139Z,3.03
2023-05-16T09:18:53.726Z,3.50
2023-05-16T09:21:20.881Z,3.38
2023-05-16T09:23:49.652Z,2.90
2023-05-16T09:26:16.234Z,2.70
2023-05-16T09:28:43.558Z,2.95
2023-05-16T09:31:26.721Z,2.67
2023-05-16T09:33:55.802Z,3.08
2023-05-16T09:36:22.233Z,2.58
2023-05-16T09:38:51.220Z,2.58
2023-05-16T09:41:17.700Z,4.03
2023-05-16T09:43:44.828Z,2.22
2023-05-16T09:46:15.598Z,2.25
2023-05-16T09:48:45.342Z,1.90
2023-05-16T09:51:12.966Z,3.38
2023-05-16T09:53:40.495Z,4.30
2023-05-16T09:56:11.581Z,2.30
2023-05-16T09:58:40.263Z,2.33
2023-05-16T10:01:07.829Z,2.67
2023-05-16T10:03:38.999Z,2.00
2023-05-16T10:06:06.794Z,2.00
2023-05-16T10:08:36.437Z,1.77
2023-05-16T10:11:04.666Z,1.50
2023-05-16T10:13:32.988Z,2.28
2023-05-16T10:16:01.679Z,2.00
2023-05-16T10:18:32.600Z,1.48
2023-05-16T10:21:06.905Z,2.72
2023-05-16T10:23:35.985Z,1.38
2023-05-16T10:26:04.640Z,1.92
2023-05-16T10:28:31.324Z,2.63
2023-05-16T10:30:58.943Z,1.85
2023-05-16T10:33:26.007Z,1.88
2023-05-16T10:35:53.004Z,1.98
2023-05-16T10:38:21.090Z,1.80
2023-05-16T10:40:48.467Z,1.85
2023-05-16T10:43:25.095Z,1.70
2023-05-16T10:46:02.344Z,1.80
2023-05-16T10:48:30.651Z,2.42
2023-05-16T10:50:57.025Z,2.33
2023-05-16T10:53:31.282Z,1.90
2023-05-16T10:56:03.799Z,1.27
2023-05-16T10:58:33.173Z,2.03
2023-05-16T11:01:25.377Z,2.33
2023-05-16T11:03:58.240Z,1.92
2023-05-16T11:06:26.153Z,1.52
2023-05-16T11:09:10.847Z,1.20
2023-05-16T11:11:52.416Z,1.95
2023-05-16T11:14:29.007Z,1.80
2023-05-16T11:17:16.036Z,2.03
2023-05-16T11:19:44.136Z,1.33
2023-05-16T11:22:21.791Z,2.08
2023-05-16T11:25:05.895Z,1.70
2023-05-16T11:27:43.873Z,1.42
2023-05-16T11:30:10.182Z,1.92
2023-05-16T11:32:38.781Z,1.50
2023-05-16T11:35:12.160Z,1.52
2023-05-16T11:37:40.255Z,1.40
2023-05-16T11:40:09.568Z,1.67
2023-05-16T11:42:38.097Z,1.60
2023-05-16T11:45:09.484Z,1.80
2023-05-16T11:47:40.849Z,2.20
2023-05-16T11:50:11.580Z,1.80
2023-05-16T11:52:38.417Z,1.10
2023-05-16T11:55:06.804Z,1.85
2023-05-16T11:57:33.650Z,2.10
2023-05-16T12:00:14.418Z,1.70
2023-05-16T12:02:40.821Z,1.33
2023-05-16T12:05:09.610Z,1.63
2023-05-16T12:07:39.670Z,1.52
2023-05-16T12:10:10.964Z,1.75
2023-05-16T12:12:41.113Z,1.65
2023-05-16T12:15:09.806Z,1.48
2023-05-16T12:17:37.963Z,1.90
2023-05-16T12:20:06.493Z,1.60
2023-05-16T12:22:34.386Z,1.70
2023-05-16T12:25:20.443Z,1.55
2023-05-16T12:27:46.901Z,1.85
2023-05-16T12:30:13.671Z,2.05
2023-05-16T12:32:40.161Z,2.15
2023-05-16T12:35:07.763Z,1.35
2023-05-16T12:37:34.175Z,1.60
2023-05-16T12:40:00.820Z,1.63
2023-05-16T12:42:27.445Z,2.13
2023-05-16T12:44:56.755Z,1.50
2023-05-16T12:47:23.175Z,1.40
2023-05-16T12:49:51.215Z,1.17
2023-05-16T12:52:23.268Z,1.60
2023-05-16T12:54:49.638Z,1.38
2023-05-16T12:57:15.982Z,1.33
2023-05-16T12:59:42.326Z,1.52
2023-05-16T13:02:08.895Z,1.30
2023-05-16T13:04:36.935Z,1.60
2023-05-16T13:07:04.564Z,1.38
2023-05-16T13:09:32.663Z,1.60
2023-05-16T13:11:59.866Z,1.60
2023-05-16T13:14:26.661Z,1.30
2023-05-16T13:16:53.031Z,1.17
2023-05-16T13:19:19.590Z,1.83
2023-05-16T13:21:46.026Z,1.73
2023-05-16T13:24:12.350Z,1.85
2023-05-16T13:26:38.822Z,1.25
2023-05-16T13:29:05.424Z,1.70
2023-05-16T13:31:31.907Z,1.70
2023-05-16T13:33:58.812Z,1.90
2023-05-16T13:36:25.136Z,1.33
2023-05-16T13:38:51.515Z,1.13
2023-05-16T13:41:18.256Z,1.45
2023-05-16T13:43:44.611Z,1.48
2023-05-16T13:46:11.172Z,1.52
2023-05-16T13:48:37.686Z,1.42
2023-05-16T13:51:04.056Z,1.40
2023-05-16T13:53:30.472Z,1.55
2023-05-16T13:55:56.853Z,1.30
2023-05-16T13:58:23.227Z,1.73
2023-05-16T14:00:50.178Z,1.13
2023-05-16T14:03:16.988Z,1.30
2023-05-16T14:05:43.487Z,1.25
2023-05-16T14:08:09.873Z,1.55
2023-05-16T14:10:36.247Z,1.35
2023-05-16T14:13:02.662Z,1.10
2023-05-16T14:15:29.253Z,1.02
2023-05-16T14:17:55.954Z,1.33
2023-05-16T14:20:22.824Z,1.13
2023-05-16T14:22:49.228Z,1.02
2023-05-16T14:25:15.803Z,1.63
2023-05-16T14:27:42.130Z,1.30
2023-05-16T14:30:09.388Z,1.02
2023-05-16T14:32:35.770Z,1.17
2023-05-16T14:35:02.165Z,0.95
2023-05-16T14:37:28.552Z,1.55
2023-05-16T14:39:55.110Z,1.40
2023-05-16T14:42:21.518Z,1.35
2023-05-16T14:44:47.915Z,1.33
2023-05-16T14:47:14.291Z,0.95
2023-05-16T14:49:41.081Z,1.33
2023-05-16T14:52:07.528Z,1.20
2023-05-16T14:54:34.051Z,2.03
2023-05-16T14:57:00.797Z,1.75
2023-05-16T14:59:27.546Z,1.00
2023-05-16T15:01:54.016Z,1.27
2023-05-16T15:04:20.450Z,0.88
2023-05-16T15:06:46.811Z,1.08
2023-05-16T15:09:13.650Z,1.30
2023-05-16T15:11:39.988Z,1.15
2023-05-16T15:14:06.371Z,1.25
2023-05-16T15:16:32.773Z,1.38
2023-05-16T15:18:59.205Z,1.30
2023-05-16T15:21:25.671Z,1.20
2023-05-16T15:23:52.624Z,1.08
2023-05-16T15:26:19.028Z,1.50
2023-05-16T15:28:45.468Z,1.20
2023-05-16T15:31:11.968Z,1.38
2023-05-16T15:33:38.373Z,1.30
2023-05-16T15:36:05.680Z,1.10
2023-05-16T15:38:32.079Z,1.30
2023-05-16T15:41:13.614Z,1.27
2023-05-16T15:43:44.855Z,1.45
2023-05-16T15:46:11.426Z,3.22
2023-05-16T15:48:42.710Z,18.13
2023-05-16T15:51:09.389Z,18.45
2023-05-16T15:53:35.788Z,5.38
2023-05-16T15:56:02.138Z,2.42
2023-05-16T15:58:28.515Z,1.95
2023-05-16T16:00:55.129Z,2.00
2023-05-16T16:03:21.927Z,1.20
2023-05-16T16:05:48.393Z,1.90
2023-05-16T16:08:14.967Z,1.42
2023-05-16T16:10:41.351Z,1.67
2023-05-16T16:13:07.709Z,1.20
2023-05-16T16:15:35.860Z,1.50
2023-05-16T16:18:02.743Z,0.80
2023-05-16T16:20:29.225Z,6.13
2023-05-16T16:22:55.772Z,6.05
2023-05-16T16:25:22.241Z,2.05
2023-05-16T16:27:48.588Z,1.35
2023-05-16T16:30:15.025Z,1.23
2023-05-16T16:32:42.131Z,1.02
2023-05-16T16:35:08.772Z,1.10
2023-05-16T16:37:35.602Z,1.10
2023-05-16T16:40:02.420Z,1.65
2023-05-16T16:42:30.371Z,1.10
2023-05-16T16:44:57.003Z,1.00
2023-05-16T16:47:24.982Z,1.02
2023-05-16T16:49:51.509Z,1.40
2023-05-16T16:52:17.914Z,1.20
2023-05-16T16:54:44.454Z,1.40
2023-05-16T16:57:10.913Z,1.42
2023-05-16T16:59:37.302Z,1.00
2023-05-16T17:02:03.799Z,1.25
2023-05-16T17:04:31.463Z,1.42
2023-05-16T17:06:57.911Z,1.55
2023-05-16T17:09:25.322Z,1.55
2023-05-16T17:11:52.158Z,1.10
2023-05-16T17:14:18.587Z,1.33
2023-05-16T17:16:45.251Z,1.25
2023-05-16T17:19:11.698Z,1.40
2023-05-16T17:21:40.322Z,1.45
2023-05-16T17:24:07.483Z,1.27
2023-05-16T17:26:33.982Z,1.15
2023-05-16T17:29:00.532Z,1.30
2023-05-16T17:31:27.966Z,0.90
2023-05-16T17:33:54.324Z,1.48
2023-05-16T17:36:20.718Z,2.03
2023-05-16T17:38:47.613Z,1.52
2023-05-16T17:41:14.766Z,1.50
2023-05-16T17:43:44.006Z,2.05
2023-05-16T17:46:11.803Z,1.10
2023-05-16T17:48:38.310Z,1.58
2023-05-16T17:51:04.888Z,1.40
2023-05-16T17:53:31.368Z,1.08
2023-05-16T17:55:57.901Z,1.40
2023-05-16T17:58:24.337Z,1.13
2023-05-16T18:00:50.738Z,1.48
2023-05-16T18:03:17.405Z,1.25
2023-05-16T18:05:44.009Z,1.40
2023-05-16T18:08:10.463Z,2.08
2023-05-16T18:10:50.320Z,1.52
2023-05-16T18:13:17.958Z,1.25
2023-05-16T18:15:44.439Z,1.13
2023-05-16T18:18:10.976Z,1.75
2023-05-16T18:20:37.678Z,1.77
2023-05-16T18:23:04.054Z,1.40
2023-05-16T18:25:31.045Z,2.20
2023-05-16T18:27:57.891Z,1.45
2023-05-16T18:30:24.345Z,3.08
2023-05-16T18:32:50.828Z,2.63
2023-05-16T18:35:17.390Z,1.80
2023-05-16T18:37:44.458Z,1.75
2023-05-16T18:40:11.458Z,1.45
2023-05-16T18:42:37.807Z,1.60
2023-05-16T18:45:04.594Z,1.92
2023-05-16T18:47:31.368Z,1.85
2023-05-16T18:49:57.927Z,1.77
2023-05-16T18:52:24.298Z,1.90
2023-05-16T18:54:50.697Z,2.22
2023-05-16T18:57:17.576Z,1.85
2023-05-16T18:59:43.926Z,1.63
2023-05-16T19:02:10.297Z,2.03
2023-05-16T19:04:36.714Z,1.80
2023-05-16T19:07:04.805Z,1.75
2023-05-16T19:09:32.633Z,1.70
2023-05-16T19:11:59.039Z,2.10
2023-05-16T19:14:27.102Z,2.10
2023-05-16T19:16:53.480Z,2.08
2023-05-16T19:19:19.920Z,2.05
2023-05-16T19:21:46.712Z,2.25
2023-05-16T19:24:13.096Z,2.30
2023-05-16T19:26:39.907Z,2.30
2023-05-16T19:29:06.415Z,1.98
2023-05-16T19:31:32.830Z,2.17
2023-05-16T19:33:59.252Z,2.00
2023-05-16T19:36:25.614Z,2.00
2023-05-16T19:38:51.982Z,1.88
2023-05-16T19:41:18.349Z,1.98
2023-05-16T19:43:44.719Z,2.10
2023-05-16T19:46:11.169Z,1.60
2023-05-16T19:48:37.661Z,2.25
2023-05-16T19:51:04.286Z,3.80
2023-05-16T19:53:30.658Z,7.05
2023-05-16T19:55:57.092Z,7.72
2023-05-16T19:58:23.479Z,4.82
2023-05-16T20:00:50.755Z,4.65
2023-05-16T20:03:17.345Z,4.05
2023-05-16T20:05:43.818Z,2.88
2023-05-16T20:08:11.156Z,2.92
2023-05-16T20:10:38.902Z,3.10
2023-05-16T20:13:05.272Z,3.42
2023-05-16T20:15:31.841Z,2.20
2023-05-16T20:17:58.267Z,2.20
2023-05-16T20:20:24.809Z,2.00
2023-05-16T20:22:51.226Z,2.50
2023-05-16T20:25:17.665Z,2.55
2023-05-16T20:27:44.006Z,2.38
2023-05-16T20:30:10.763Z,2.65
2023-05-16T20:32:37.171Z,1.90
2023-05-16T20:35:04.837Z,2.05
2023-05-16T20:37:31.275Z,2.10
2023-05-16T20:39:57.612Z,2.30
2023-05-16T20:42:26.405Z,2.58
2023-05-16T20:44:52.756Z,2.30
2023-05-16T20:47:19.144Z,2.80
2023-05-16T20:49:45.499Z,2.13
2023-05-16T20:52:11.883Z,3.05
2023-05-16T20:54:38.305Z,2.88
2023-05-16T20:57:05.215Z,2.78
2023-05-16T20:59:32.199Z,5.13
2023-05-16T21:01:58.659Z,4.93
2023-05-16T21:04:25.574Z,4.57
2023-05-16T21:06:52.015Z,5.28
2023-05-16T21:09:18.448Z,2.92
2023-05-16T21:11:44.950Z,2.97
2023-05-16T21:14:11.825Z,4.00
2023-05-16T21:16:38.197Z,7.90
2023-05-16T21:19:04.845Z,4.95
2023-05-16T21:21:31.582Z,3.65
2023-05-16T21:23:58.019Z,3.75
2023-05-16T21:26:24.508Z,2.55
2023-05-16T21:28:55.513Z,2.97
2023-05-16T21:31:22.572Z,2.50
2023-05-16T21:33:51.863Z,2.40
2023-05-16T21:36:19.231Z,3.38
2023-05-16T21:38:45.650Z,2.90
2023-05-16T21:41:12.107Z,3.20
2023-05-16T21:43:38.638Z,3.13
2023-05-16T21:46:05.241Z,2.88
2023-05-16T21:48:31.716Z,3.20
2023-05-16T21:50:58.243Z,4.05
2023-05-16T21:53:25.970Z,3.15
2023-05-16T21:55:52.369Z,3.38
2023-05-16T21:58:19.290Z,2.78
2023-05-16T22:00:45.894Z,3.55
2023-05-16T22:03:12.421Z,3.05
2023-05-16T22:05:38.821Z,3.38
2023-05-16T22:08:05.476Z,3.72
2023-05-16T22:10:31.859Z,3.38
2023-05-16T22:12:58.232Z,3.30
2023-05-16T22:15:24.631Z,4.32
2023-05-16T22:17:51.138Z,3.15
2023-05-16T22:20:17.621Z,2.92
2023-05-16T22:22:44.937Z,2.90
2023-05-16T22:25:11.503Z,3.22
2023-05-16T22:27:37.928Z,3.55
2023-05-16T22:30:04.850Z,3.90
2023-05-16T22:32:31.269Z,3.55
2023-05-16T22:34:57.771Z,4.10
2023-05-16T22:37:24.251Z,3.28
2023-05-16T22:39:51.282Z,4.18
2023-05-16T22:42:17.938Z,3.25
2023-05-16T22:44:44.414Z,3.65
2023-05-16T22:47:10.956Z,3.40
2023-05-16T22:49:37.363Z,3.30
2023-05-16T22:52:03.990Z,3.25
2023-05-16T22:54:30.402Z,3.78
2023-05-16T22:56:56.784Z,3.20
2023-05-16T22:59:23.183Z,3.42
2023-05-16T23:01:49.688Z,3.53
2023-05-16T23:04:16.090Z,3.40
2023-05-16T23:06:42.505Z,3.97
2023-05-16T23:09:08.877Z,3.30
2023-05-16T23:11:35.273Z,3.78
2023-05-16T23:14:01.677Z,3.72
2023-05-16T23:16:28.078Z,3.53
2023-05-16T23:18:54.542Z,3.55
2023-05-16T23:21:21.002Z,3.55
2023-05-16T23:23:47.366Z,3.00
2023-05-16T23:26:13.744Z,3.65
2023-05-16T23:28:40.217Z,3.60
2023-05-16T23:31:06.594Z,3.67
2023-05-16T23:33:33.480Z,3.97
2023-05-16T23:35:59.883Z,3.72
2023-05-16T23:38:27.229Z,3.38
2023-05-16T23:40:53.628Z,4.38
2023-05-16T23:43:19.977Z,3.33
2023-05-16T23:45:46.605Z,3.22
2023-05-16T23:48:13.036Z,3.85
2023-05-16T23:50:39.669Z,3.65
2023-05-16T23:53:06.232Z,3.80
2023-05-16T23:55:32.602Z,3.88
2023-05-16T23:57:59.011Z,4.40
